Time;durP1;ratioP1;P1;durP2;ratioP2;P2;SDS_P1;SDS_P2;PMS_P1;PMS_P2;Temp;Humidity;BMP_temperature;BMP_pressure;BME280_temperature;BME280_humidity;BME280_pressure;Samples;Min_cycle;Max_cycle;Signal;HPM_P1;HPM_P2
2021/12/09 00:02:12;;;;;;;13.60;6.50;;;;;;;2.88;83.38;100003.50;5052790;28;20079;-72
2021/12/09 00:04:37;;;;;;;12.25;5.75;;;;;;;2.82;83.05;99998.94;5054690;28;20094;-69
2021/12/09 00:07:02;;;;;;;12.57;6.15;;;;;;;2.81;83.56;100003.47;5037338;28;20025;-71
2021/12/09 00:09:28;;;;;;;16.80;5.78;;;;;;;2.79;83.56;100004.69;5054972;28;20032;-70
2021/12/09 00:11:53;;;;;;;14.80;6.05;;;;;;;2.81;83.45;100010.69;5050887;28;20040;-69
2021/12/09 00:14:25;;;;;;;12.40;5.43;;;;;;;2.82;83.86;100010.47;5034803;28;20060;-71
2021/12/09 00:16:53;;;;;;;14.02;5.68;;;;;;;2.77;83.84;100012.09;5035009;28;20029;-71
2021/12/09 00:19:19;;;;;;;14.32;5.82;;;;;;;2.73;83.40;100006.28;5034665;28;20029;-71
2021/12/09 00:21:45;;;;;;;15.82;5.90;;;;;;;2.77;83.39;100001.41;5034906;28;20065;-71
2021/12/09 00:24:11;;;;;;;11.25;5.57;;;;;;;2.74;83.63;100010.63;5034884;28;20476;-70
2021/12/09 00:26:38;;;;;;;19.35;6.20;;;;;;;2.70;83.95;100006.66;5035041;28;20424;-71
2021/12/09 00:29:04;;;;;;;11.48;5.75;;;;;;;2.74;83.97;100007.94;5054694;28;20113;-71
2021/12/09 00:31:30;;;;;;;12.82;5.68;;;;;;;2.75;83.32;100014.09;5054169;28;20159;-69
2021/12/09 00:33:57;;;;;;;11.60;5.85;;;;;;;2.75;83.52;100020.28;5054366;28;20121;-70
2021/12/09 00:36:33;;;;;;;13.20;5.70;;;;;;;2.75;83.26;100014.09;5053975;28;20404;-71
2021/12/09 00:38:59;;;;;;;15.30;6.18;;;;;;;2.74;83.41;100020.50;5054161;28;20032;-71
2021/12/09 00:41:25;;;;;;;15.77;5.90;;;;;;;2.76;83.84;100026.44;5036327;28;20037;-70
2021/12/09 00:43:51;;;;;;;11.30;5.80;;;;;;;2.75;84.05;100016.78;5054404;28;20111;-71
2021/12/09 00:46:17;;;;;;;13.82;5.50;;;;;;;2.77;83.49;100022.78;5054199;28;20468;-72
2021/12/09 00:48:42;;;;;;;11.05;5.35;;;;;;;2.78;83.96;100014.56;5035440;28;20036;-71
2021/12/09 00:51:08;;;;;;;10.00;5.07;;;;;;;2.80;83.41;100014.38;5036440;28;20029;-72
2021/12/09 00:53:34;;;;;;;15.40;5.57;;;;;;;2.82;83.44;100009.63;5054052;28;20029;-70
2021/12/09 00:56:02;;;;;;;13.70;6.00;;;;;;;2.78;83.55;100013.75;5053898;28;20492;-71
2021/12/09 00:58:27;;;;;;;12.38;5.32;;;;;;;2.82;83.74;100006.97;5053557;28;20464;-72
2021/12/09 01:00:54;;;;;;;12.32;5.78;;;;;;;2.81;83.79;100016.03;5051832;28;20020;-71
2021/12/09 01:03:19;;;;;;;12.32;5.32;;;;;;;2.81;83.91;100018.69;5053571;28;20036;-72
2021/12/09 01:05:45;;;;;;;11.25;5.32;;;;;;;2.78;83.66;100021.75;5053887;28;20037;-73
2021/12/09 01:08:11;;;;;;;13.88;6.00;;;;;;;2.82;83.38;100018.50;5053978;28;20036;-71
2021/12/09 01:10:38;;;;;;;15.70;6.25;;;;;;;2.79;83.81;100018.03;5035807;28;20040;-69
2021/12/09 01:13:04;;;;;;;12.40;5.55;;;;;;;2.77;83.46;100022.78;5051788;28;20103;-70
2021/12/09 01:15:29;;;;;;;13.68;5.78;;;;;;;2.80;83.82;100027.72;5053305;28;20064;-71
2021/12/09 01:17:55;;;;;;;13.02;5.75;;;;;;;2.74;83.80;100023.97;5053749;28;20044;-69
2021/12/09 01:20:25;;;;;;;14.27;6.03;;;;;;;2.72;83.38;100036.72;5035492;28;20051;-69
2021/12/09 01:22:55;;;;;;;16.38;5.90;;;;;;;2.69;83.97;100033.56;5053644;28;20036;-71
2021/12/09 01:25:22;;;;;;;13.52;5.75;;;;;;;2.68;83.90;100024.75;5053435;28;20059;-71
2021/12/09 01:27:49;;;;;;;16.67;5.85;;;;;;;2.66;84.18;100024.94;5045519;28;20112;-72
2021/12/09 01:30:18;;;;;;;14.38;5.93;;;;;;;2.65;83.52;100027.81;5033598;28;20045;-71
2021/12/09 01:32:51;;;;;;;9.43;5.35;;;;;;;2.61;83.56;100032.72;5033338;28;20029;-71
2021/12/09 01:35:22;;;;;;;11.40;5.70;;;;;;;2.62;83.87;100037.03;5033472;28;20048;-73
2021/12/09 01:37:52;;;;;;;13.27;6.07;;;;;;;2.59;83.76;100025.91;5033542;28;20029;-70
2021/12/09 01:40:17;;;;;;;12.18;5.80;;;;;;;2.55;84.37;100025.47;5033287;28;20033;-73
2021/12/09 01:42:43;;;;;;;14.02;5.78;;;;;;;2.52;84.10;100019.69;5033465;28;20435;-72
2021/12/09 01:45:09;;;;;;;17.35;5.80;;;;;;;2.52;84.05;100033.03;5033179;28;20057;-71
2021/12/09 01:47:34;;;;;;;14.80;6.10;;;;;;;2.50;84.11;100033.22;5015202;28;20026;-70
2021/12/09 01:49:59;;;;;;;15.73;6.10;;;;;;;2.46;84.13;100027.47;5032998;28;20025;-69
2021/12/09 01:52:25;;;;;;;15.85;6.03;;;;;;;2.46;84.26;100027.47;5032981;28;20074;-70
2021/12/09 01:54:51;;;;;;;15.98;5.63;;;;;;;2.48;84.11;100017.41;5033330;28;20111;-72
2021/12/09 01:57:17;;;;;;;11.00;5.95;;;;;;;2.48;83.67;100013.91;5040560;28;20116;-71
2021/12/09 01:59:43;;;;;;;14.40;6.20;;;;;;;2.49;83.84;100026.22;5052820;28;20040;-71
2021/12/09 02:02:08;;;;;;;15.30;6.03;;;;;;;2.51;84.07;100024.22;5050878;28;20032;-71
2021/12/09 02:04:33;;;;;;;13.48;5.40;;;;;;;2.51;84.41;100024.22;5052729;28;20040;-72
2021/12/09 02:06:58;;;;;;;11.80;5.20;;;;;;;2.52;84.05;100028.53;5052854;28;20029;-70
2021/12/09 02:09:24;;;;;;;14.25;5.75;;;;;;;2.47;84.34;100022.94;5052407;28;20029;-72
2021/12/09 02:11:49;;;;;;;14.38;5.78;;;;;;;2.49;84.29;100015.53;5046536;28;20026;-70
2021/12/09 02:14:15;;;;;;;14.98;5.65;;;;;;;2.46;84.00;100021.28;5032882;28;20380;-70
2021/12/09 02:16:41;;;;;;;11.90;5.47;;;;;;;2.44;83.61;100020.66;5032627;28;20118;-72
2021/12/09 02:19:10;;;;;;;14.60;5.85;;;;;;;2.42;84.22;100014.69;5032247;28;20030;-71
2021/12/09 02:21:35;;;;;;;14.45;5.93;;;;;;;2.41;84.40;100019.19;5032520;28;20079;-71
2021/12/09 02:24:07;;;;;;;14.05;6.00;;;;;;;2.39;84.43;100017.75;5032428;28;20025;-70
2021/12/09 02:26:37;;;;;;;13.90;5.63;;;;;;;2.42;84.27;100014.69;5037959;28;20473;-72
2021/12/09 02:29:04;;;;;;;15.25;5.28;;;;;;;2.40;84.34;100016.69;5052563;28;20044;-70
2021/12/09 02:31:31;;;;;;;13.63;5.70;;;;;;;2.38;84.02;100019.56;5052333;28;20025;-70
2021/12/09 02:33:58;;;;;;;12.63;5.55;;;;;;;2.38;84.17;100013.41;5052520;28;20064;-70
2021/12/09 02:36:23;;;;;;;15.18;5.65;;;;;;;2.35;84.13;100016.47;5052518;28;20029;-71
2021/12/09 02:38:50;;;;;;;13.75;5.80;;;;;;;2.37;84.24;100011.75;5034279;28;20044;-70
2021/12/09 02:41:19;;;;;;;11.63;5.38;;;;;;;2.37;84.29;100017.09;5049580;28;20456;-71
2021/12/09 02:43:48;;;;;;;12.05;5.65;;;;;;;2.33;83.77;100016.66;5052188;28;20105;-72
2021/12/09 02:46:15;;;;;;;13.13;5.72;;;;;;;2.27;83.80;100010.22;5050217;28;20045;-70
2021/12/09 02:48:41;;;;;;;13.98;5.53;;;;;;;2.30;84.39;100017.84;5052108;28;20075;-72
2021/12/09 02:51:07;;;;;;;12.65;5.22;;;;;;;2.27;84.15;100012.91;5043752;28;20037;-70
2021/12/09 02:53:34;;;;;;;12.23;5.72;;;;;;;2.29;84.12;100016.22;5014577;28;20113;-71
2021/12/09 02:56:00;;;;;;;17.73;5.93;;;;;;;2.28;83.97;100019.91;5032456;28;20091;-71
2021/12/09 02:58:25;;;;;;;16.48;5.85;;;;;;;2.33;84.58;100021.19;5032557;28;20029;-69
2021/12/09 03:01:12;;;;;;;13.70;5.82;;;;;;;2.36;84.00;100026.13;5029812;28;20028;-73
2021/12/09 03:03:45;;;;;;;15.23;5.78;;;;;;;2.33;84.17;100026.53;5032170;28;20029;-71
2021/12/09 03:06:11;;;;;;;13.13;5.70;;;;;;;2.34;84.43;100028.16;5034617;28;20108;-72
2021/12/09 03:08:38;;;;;;;11.30;5.03;;;;;;;2.32;84.47;100035.53;5032065;28;20128;-73
2021/12/09 03:11:13;;;;;;;15.52;5.13;;;;;;;2.33;84.17;100034.53;5032331;28;20025;-72
2021/12/09 03:13:41;;;;;;;13.30;5.50;;;;;;;2.26;84.07;100037.94;5032047;28;20105;-72
2021/12/09 03:16:06;;;;;;;12.63;5.28;;;;;;;2.24;84.47;100034.63;5032205;28;20376;-72
2021/12/09 03:18:39;;;;;;;12.15;5.22;;;;;;;2.24;84.59;100039.97;5031897;28;20116;-74
2021/12/09 03:21:12;;;;;;;12.38;5.35;;;;;;;2.24;84.17;100044.50;5043550;28;20037;-69
2021/12/09 03:23:37;;;;;;;13.38;5.35;;;;;;;2.27;84.56;100050.28;5051863;28;20029;-70
2021/12/09 03:26:03;;;;;;;9.93;5.57;;;;;;;2.24;84.48;100058.66;5051875;28;20025;-69
2021/12/09 03:28:28;;;;;;;17.10;5.32;;;;;;;2.23;83.96;100054.34;5052115;28;20033;-71
2021/12/09 03:30:53;;;;;;;13.35;5.40;;;;;;;2.22;84.29;100058.03;5054671;28;20025;-71
2021/12/09 03:33:19;;;;;;;13.02;5.40;;;;;;;2.18;84.87;100051.41;5037798;28;20103;-71
2021/12/09 03:35:44;;;;;;;15.18;4.80;;;;;;;2.20;84.93;100049.38;5036993;28;20036;-74
2021/12/09 03:38:09;;;;;;;11.77;4.80;;;;;;;2.19;84.05;100047.75;5055697;28;20056;-73
2021/12/09 03:40:35;;;;;;;13.10;5.07;;;;;;;2.21;84.49;100045.69;5055427;28;20029;-73
2021/12/09 03:43:00;;;;;;;12.45;5.18;;;;;;;2.22;84.92;100059.84;5055379;28;20025;-72
2021/12/09 03:45:25;;;;;;;13.27;4.82;;;;;;;2.19;84.43;100061.09;5055738;28;20045;-72
2021/12/09 03:47:50;;;;;;;10.45;5.10;;;;;;;2.19;84.95;100058.41;5055425;28;20040;-72
2021/12/09 03:50:17;;;;;;;13.80;5.10;;;;;;;2.18;84.02;100067.44;5024722;28;20045;-71
2021/12/09 03:52:43;;;;;;;13.40;4.63;;;;;;;2.20;84.02;100065.38;5013950;28;20062;-71
2021/12/09 03:55:09;;;;;;;10.65;4.57;;;;;;;2.19;84.41;100070.91;5030914;28;20112;-71
2021/12/09 03:57:34;;;;;;;10.73;4.90;;;;;;;2.19;84.03;100071.75;5015492;28;20076;-70
2021/12/09 04:00:00;;;;;;;9.85;4.40;;;;;;;2.19;84.04;100069.09;5015645;28;20045;-73
2021/12/09 04:02:26;;;;;;;13.68;4.90;;;;;;;2.18;84.56;100074.63;5013209;28;20029;-71
2021/12/09 04:04:51;;;;;;;13.05;4.57;;;;;;;2.18;84.38;100075.44;5025100;28;20431;-73
2021/12/09 04:07:17;;;;;;;17.58;4.88;;;;;;;2.19;84.46;100069.09;5055161;28;20021;-70
2021/12/09 04:09:43;;;;;;;15.65;4.75;;;;;;;2.20;84.50;100060.06;5054844;28;20079;-73
2021/12/09 04:12:09;;;;;;;11.00;4.72;;;;;;;2.23;84.38;100054.34;5037261;28;20037;-72
2021/12/09 04:14:35;;;;;;;10.77;4.30;;;;;;;2.22;84.39;100058.03;5054794;28;20035;-72
2021/12/09 04:17:01;;;;;;;8.60;4.30;;;;;;;2.26;83.76;100053.13;5054974;28;20039;-72
2021/12/09 04:19:26;;;;;;;13.07;4.38;;;;;;;2.19;83.93;100061.09;5047941;28;20033;-70
2021/12/09 04:21:51;;;;;;;14.45;4.45;;;;;;;2.21;83.89;100069.72;5034746;28;20060;-72
2021/12/09 04:24:17;;;;;;;15.05;5.13;;;;;;;2.21;84.13;100074.25;5035186;28;20036;-70
2021/12/09 04:26:47;;;;;;;9.82;4.32;;;;;;;2.20;83.73;100070.72;5034688;28;20033;-70
2021/12/09 04:29:12;;;;;;;14.20;4.47;;;;;;;2.21;83.91;100061.72;5034875;28;20026;-69
2021/12/09 04:31:39;;;;;;;13.85;3.95;;;;;;;2.18;83.94;100067.44;5034585;28;20035;-71
2021/12/09 04:34:05;;;;;;;10.57;4.78;;;;;;;2.19;84.18;100084.25;5040201;28;20033;-70
2021/12/09 04:36:30;;;;;;;9.43;4.35;;;;;;;2.19;83.71;100071.75;5054681;28;20029;-71
2021/12/09 04:38:56;;;;;;;10.90;4.20;;;;;;;2.20;84.27;100078.72;5054008;28;20032;-73
2021/12/09 04:41:22;;;;;;;10.43;3.70;;;;;;;2.20;84.14;100078.72;5054051;28;20499;-72
2021/12/09 04:43:48;;;;;;;12.68;4.28;;;;;;;2.19;84.35;100084.25;5053717;28;20032;-70
2021/12/09 04:46:15;;;;;;;13.15;4.20;;;;;;;2.19;84.06;100085.13;5053870;28;20476;-72
2021/12/09 04:48:42;;;;;;;10.15;3.83;;;;;;;2.19;83.69;100087.78;5054125;28;20051;-73
2021/12/09 04:51:08;;;;;;;9.77;4.00;;;;;;;2.18;83.76;100077.28;5054327;28;20040;-72
2021/12/09 04:53:34;;;;;;;11.35;4.47;;;;;;;2.17;84.07;100086.31;5051177;28;20037;-70
2021/12/09 04:56:00;;;;;;;10.73;3.90;;;;;;;2.12;83.44;100071.69;5034071;28;20084;-70
2021/12/09 04:58:26;;;;;;;10.25;3.97;;;;;;;2.15;84.47;100081.16;5034281;28;20034;-71
2021/12/09 05:00:55;;;;;;;11.05;4.28;;;;;;;2.14;83.76;100087.50;5031743;28;20680;-73
2021/12/09 05:03:21;;;;;;;9.88;4.32;;;;;;;2.11;83.85;100078.06;5033931;28;20128;-72
2021/12/09 05:05:50;;;;;;;11.82;4.35;;;;;;;2.15;83.64;100078.50;5033972;28;20037;-73
2021/12/09 05:08:19;;;;;;;11.95;4.45;;;;;;;2.12;84.48;100078.88;5034103;28;20040;-71
2021/12/09 05:11:05;;;;;;;11.20;4.28;;;;;;;2.14;84.23;100082.16;5033526;28;20481;-73
2021/12/09 05:13:32;;;;;;;11.52;3.70;;;;;;;2.13;84.12;100089.34;5034073;28;20021;-70
2021/12/09 05:16:00;;;;;;;11.77;3.95;;;;;;;2.11;83.70;100096.72;5033497;28;20037;-72
2021/12/09 05:18:27;;;;;;;11.63;3.97;;;;;;;2.10;83.75;100092.41;5034486;28;20056;-69
2021/12/09 05:20:53;;;;;;;15.48;4.15;;;;;;;2.15;84.08;100094.50;5053474;28;20036;-70
2021/12/09 05:23:22;;;;;;;8.65;3.92;;;;;;;2.10;84.53;100097.75;5035852;28;20426;-68
2021/12/09 05:25:47;;;;;;;12.15;3.70;;;;;;;2.12;84.35;100102.88;5053444;28;20166;-69
2021/12/09 05:28:16;;;;;;;13.85;3.92;;;;;;;2.13;84.38;100102.69;5053606;28;20484;-70
2021/12/09 05:33:33;;;;;;;11.65;3.80;;;;;;;2.09;83.82;100095.25;5053301;28;20507;-73
2021/12/09 05:35:59;;;;;;;7.70;4.03;;;;;;;2.05;83.41;100096.63;5053400;28;20029;-69
2021/12/09 05:38:25;;;;;;;13.07;4.15;;;;;;;2.01;84.05;100093.53;5053576;28;20119;-70
2021/12/09 05:40:51;;;;;;;11.38;4.15;;;;;;;2.02;83.71;100100.50;5053125;28;20033;-73
2021/12/09 05:43:18;;;;;;;9.52;4.00;;;;;;;2.00;84.07;100104.41;5053157;28;20041;-72
2021/12/09 05:45:43;;;;;;;9.93;3.83;;;;;;;1.98;84.45;100103.72;5035572;28;20060;-69
2021/12/09 05:48:10;;;;;;;12.32;3.95;;;;;;;1.97;84.21;100102.09;5033285;28;20037;-74
2021/12/09 05:50:37;;;;;;;11.27;4.30;;;;;;;1.92;84.22;100108.81;5033246;28;20030;-70
2021/12/09 05:53:02;;;;;;;12.32;4.03;;;;;;;1.90;84.64;100110.84;5032722;28;20036;-70
2021/12/09 05:55:28;;;;;;;12.10;4.40;;;;;;;1.87;84.19;100113.91;5033220;28;20469;-70
2021/12/09 05:57:53;;;;;;;13.38;4.57;;;;;;;1.89;84.54;100103.84;5032955;28;20036;-73
2021/12/09 06:00:18;;;;;;;12.65;4.47;;;;;;;1.92;84.31;100108.81;5033038;28;20376;-72
2021/12/09 06:02:44;;;;;;;12.15;4.18;;;;;;;1.93;84.65;100104.28;5038020;28;20029;-72
2021/12/09 06:05:10;;;;;;;11.93;3.85;;;;;;;1.92;84.31;100111.47;5052706;28;20087;-69
2021/12/09 06:07:36;;;;;;;14.63;4.40;;;;;;;1.92;84.33;100114.16;5052887;28;20033;-72
2021/12/09 06:10:03;;;;;;;11.15;4.18;;;;;;;1.89;84.80;100111.84;5052546;28;20460;-72
2021/12/09 06:12:29;;;;;;;11.60;4.30;;;;;;;1.86;85.05;100109.56;5052900;28;20060;-74
2021/12/09 06:14:54;;;;;;;15.35;4.88;;;;;;;1.88;85.00;100114.72;5034820;28;20483;-71
2021/12/09 06:17:19;;;;;;;13.45;4.28;;;;;;;1.89;85.16;100117.19;5046050;28;20036;-74
2021/12/09 06:19:44;;;;;;;21.30;4.70;;;;;;;1.89;85.00;100111.03;5032536;28;20030;-72
2021/12/09 06:22:10;;;;;;;14.95;4.50;;;;;;;1.89;84.38;100114.53;5015070;28;20067;-73
2021/12/09 06:24:35;;;;;;;9.73;4.35;;;;;;;1.87;84.83;100103.22;5032789;28;20064;-71
2021/12/09 06:27:03;;;;;;;12.73;4.50;;;;;;;1.88;84.80;100101.38;5032532;28;20052;-70
2021/12/09 06:29:28;;;;;;;13.32;4.50;;;;;;;1.90;84.41;100105.53;5032733;28;20167;-71
2021/12/09 06:31:54;;;;;;;12.48;4.45;;;;;;;1.89;84.17;100101.19;5037165;28;20112;-71
2021/12/09 06:34:19;;;;;;;13.00;4.53;;;;;;;1.84;85.14;100114.28;5052260;28;20499;-74
2021/12/09 06:36:44;;;;;;;12.82;4.50;;;;;;;1.82;84.71;100120.78;5052296;28;20093;-73
2021/12/09 06:39:09;;;;;;;12.95;4.60;;;;;;;1.78;84.77;100109.66;5034552;28;20037;-75
2021/12/09 06:41:35;;;;;;;14.80;4.97;;;;;;;1.81;85.41;100117.28;5052423;28;20029;-74
2021/12/09 06:44:02;;;;;;;12.20;4.70;;;;;;;1.83;85.27;100122.44;5052226;28;20029;-74
2021/12/09 06:46:27;;;;;;;14.18;4.28;;;;;;;1.78;84.67;100120.31;5048719;28;20046;-70
2021/12/09 06:48:53;;;;;;;11.23;4.97;;;;;;;1.78;85.29;100120.31;5032357;28;20056;-74
2021/12/09 06:51:18;;;;;;;13.32;4.82;;;;;;;1.81;84.92;100127.94;5032661;28;20041;-70
2021/12/09 06:53:43;;;;;;;15.70;4.90;;;;;;;1.78;84.95;100122.97;5032266;28;20037;-73
2021/12/09 06:56:09;;;;;;;12.32;4.90;;;;;;;1.81;85.35;100127.94;5032427;28;20053;-71
2021/12/09 06:58:35;;;;;;;12.35;4.80;;;;;;;1.80;85.58;100128.13;5032327;28;20044;-71
2021/12/09 07:01:00;;;;;;;12.45;4.50;;;;;;;1.78;85.02;100136.31;5013462;28;20606;-72
2021/12/09 07:03:26;;;;;;;11.77;5.13;;;;;;;1.79;84.98;100130.00;5052636;28;20115;-73
2021/12/09 07:05:53;;;;;;;16.38;5.15;;;;;;;1.75;85.00;100134.88;5055777;28;20392;-74
2021/12/09 07:08:20;;;;;;;16.27;5.00;;;;;;;1.77;85.56;100132.03;5056282;28;20037;-73
2021/12/09 07:10:47;;;;;;;14.30;4.85;;;;;;;1.75;85.09;100139.38;5055918;28;20059;-72
2021/12/09 07:13:12;;;;;;;9.70;4.38;;;;;;;1.79;85.46;100138.00;5056184;28;20136;-69
2021/12/09 07:15:38;;;;;;;14.73;4.10;;;;;;;2.07;88.98;100129.31;5055130;28;20468;-72
2021/12/09 07:18:03;;;;;;;13.73;4.35;;;;;;;2.19;86.38;100134.97;5035973;28;20591;-72
2021/12/09 07:20:30;;;;;;;11.50;4.55;;;;;;;2.16;84.27;100140.69;5036093;28;20420;-73
2021/12/09 07:22:56;;;;;;;10.45;4.63;;;;;;;2.11;84.71;100141.25;5035558;28;20469;-81
2021/12/09 07:25:24;;;;;;;14.18;5.20;;;;;;;1.99;84.13;100140.09;5018315;28;20033;-75
2021/12/09 07:27:49;;;;;;;11.00;4.63;;;;;;;1.97;84.26;100139.47;5035684;28;20113;-74
2021/12/09 07:30:16;;;;;;;11.85;4.65;;;;;;;1.90;84.25;100134.88;5039855;28;20120;-76
2021/12/09 07:32:42;;;;;;;11.05;4.68;;;;;;;1.88;84.85;100142.22;5051112;28;20060;-76
2021/12/09 07:35:09;;;;;;;13.23;5.18;;;;;;;1.86;85.06;100135.44;5055266;28;20490;-73
2021/12/09 07:37:37;;;;;;;12.82;4.90;;;;;;;1.82;85.48;100139.47;5055757;28;20456;-72
2021/12/09 07:40:05;;;;;;;12.55;4.43;;;;;;;1.80;85.16;100142.31;5055093;28;20024;-72
2021/12/09 07:42:30;;;;;;;11.93;4.93;;;;;;;1.73;85.11;100144.06;5014372;28;20033;-71
2021/12/09 07:44:56;;;;;;;11.88;4.75;;;;;;;1.71;85.86;100141.59;5034791;28;20036;-72
2021/12/09 07:47:21;;;;;;;15.07;5.28;;;;;;;1.76;85.30;100144.50;5035629;28;20029;-72
2021/12/09 07:49:46;;;;;;;13.93;4.70;;;;;;;1.73;85.92;100146.72;5035361;28;20037;-69
2021/12/09 07:52:11;;;;;;;14.20;5.03;;;;;;;1.72;85.29;100150.41;5035682;28;20131;-69
2021/12/09 07:54:37;;;;;;;13.57;4.65;;;;;;;1.75;85.59;100152.69;5034993;28;20036;-69
2021/12/09 07:57:02;;;;;;;15.65;5.18;;;;;;;1.73;85.91;100144.88;5034907;28;20101;-69
2021/12/09 07:59:28;;;;;;;10.15;4.78;;;;;;;1.74;85.33;100143.06;5017273;28;20461;-69
2021/12/09 08:01:53;;;;;;;11.50;4.97;;;;;;;1.75;85.29;100150.03;5032746;28;20065;-69
2021/12/09 08:04:18;;;;;;;12.35;4.65;;;;;;;1.75;86.18;100144.69;5035234;28;20051;-69
2021/12/09 08:06:44;;;;;;;14.45;5.05;;;;;;;1.75;85.48;100152.69;5035351;28;20136;-69
2021/12/09 08:09:09;;;;;;;12.05;5.28;;;;;;;1.76;85.62;100167.69;5017199;28;20057;-69
2021/12/09 08:11:37;;;;;;;18.15;5.78;;;;;;;1.80;85.44;100169.00;5035130;28;20037;-69
2021/12/09 08:14:04;;;;;;;16.33;5.20;;;;;;;1.80;85.57;100166.34;5034850;28;20071;-69
2021/12/09 08:16:33;;;;;;;9.02;4.78;;;;;;;1.84;85.92;100167.63;5034157;28;20029;-69
2021/12/09 08:18:59;;;;;;;10.82;4.88;;;;;;;1.90;85.89;100180.22;5016975;28;20048;-69
2021/12/09 08:21:26;;;;;;;12.00;4.75;;;;;;;1.91;86.18;100179.19;5035016;28;20373;-69
2021/12/09 08:23:53;;;;;;;12.80;5.00;;;;;;;1.89;86.28;100175.88;5034724;28;20037;-69
2021/12/09 08:26:21;;;;;;;13.52;5.32;;;;;;;1.95;85.89;100175.16;5034855;28;20029;-69
2021/12/09 08:28:46;;;;;;;12.40;4.78;;;;;;;1.99;86.04;100164.09;5034816;28;20033;-69
2021/12/09 08:31:12;;;;;;;14.00;5.63;;;;;;;2.05;86.38;100171.38;5034322;28;20029;-69
2021/12/09 08:33:37;;;;;;;10.18;4.57;;;;;;;2.05;85.64;100179.38;5034772;28;20070;-69
2021/12/09 08:36:03;;;;;;;13.07;4.45;;;;;;;2.09;85.97;100175.31;5016641;28;20124;-69
2021/12/09 08:38:28;;;;;;;13.93;4.63;;;;;;;2.14;86.07;100172.91;5034610;28;20523;-69
2021/12/09 08:40:54;;;;;;;13.65;4.97;;;;;;;2.18;86.17;100157.38;5034390;28;20065;-69
2021/12/09 08:43:24;;;;;;;17.27;5.10;;;;;;;2.14;85.77;100164.91;5034641;28;20026;-69
2021/12/09 08:45:53;;;;;;;17.25;5.20;;;;;;;2.20;86.02;100171.34;5034115;28;20049;-69
2021/12/09 08:48:18;;;;;;;13.68;4.70;;;;;;;2.22;85.74;100175.50;5034498;28;20493;-69
2021/12/09 08:50:44;;;;;;;11.30;4.85;;;;;;;2.28;85.75;100179.25;5034435;28;20030;-69
2021/12/09 08:53:13;;;;;;;15.25;4.80;;;;;;;2.24;85.64;100172.63;5016349;28;20469;-69
2021/12/09 08:55:39;;;;;;;12.82;5.13;;;;;;;2.28;86.02;100176.56;5034211;28;20030;-69
2021/12/09 08:58:05;;;;;;;17.00;5.65;;;;;;;2.32;85.98;100177.03;5034157;28;20060;-69
2021/12/09 09:00:32;;;;;;;16.05;5.28;;;;;;;2.36;85.70;100178.31;5014586;28;20060;-69
2021/12/09 09:02:58;;;;;;;15.27;5.18;;;;;;;2.38;86.21;100179.78;5034010;28;20028;-69
2021/12/09 09:05:25;;;;;;;13.85;5.20;;;;;;;2.41;85.67;100178.59;5034474;28;20039;-69
2021/12/09 09:07:50;;;;;;;14.52;5.20;;;;;;;2.46;85.97;100176.16;5016100;28;20388;-69
2021/12/09 09:10:19;;;;;;;15.98;5.30;;;;;;;2.48;85.81;100179.50;5016248;28;20030;-69
2021/12/09 09:12:45;;;;;;;13.85;5.00;;;;;;;2.53;86.21;100179.75;5034171;28;20104;-69
2021/12/09 09:15:13;;;;;;;11.23;5.10;;;;;;;2.57;85.74;100178.34;5015874;28;20436;-69
2021/12/09 09:17:38;;;;;;;11.15;5.40;;;;;;;2.55;85.42;100180.41;5033869;28;20376;-69
2021/12/09 09:20:06;;;;;;;12.25;5.75;;;;;;;2.61;86.08;100184.13;5033569;28;20112;-69
2021/12/09 09:22:32;;;;;;;13.25;5.60;;;;;;;2.64;85.86;100184.59;5016052;28;20469;-69
2021/12/09 09:24:57;;;;;;;14.43;5.95;;;;;;;2.69;85.70;100178.69;5033285;28;20037;-69
2021/12/09 09:27:23;;;;;;;11.70;5.20;;;;;;;2.75;85.63;100180.59;5033399;28;20040;-70
2021/12/09 09:29:48;;;;;;;10.82;5.00;;;;;;;2.83;85.88;100180.47;5033436;28;20112;-70
2021/12/09 09:32:14;;;;;;;16.85;5.70;;;;;;;2.84;85.59;100183.97;5033156;28;20106;-70
2021/12/09 09:34:40;;;;;;;20.15;6.22;;;;;;;2.84;85.68;100189.31;5033632;28;20108;-71
2021/12/09 09:37:06;;;;;;;16.65;5.18;;;;;;;2.86;85.91;100179.25;5033351;28;20117;-70
2021/12/09 09:39:33;;;;;;;14.07;5.63;;;;;;;2.90;86.00;100182.38;5033520;28;20473;-70
2021/12/09 09:42:18;;;;;;;16.63;5.57;;;;;;;2.88;85.75;100187.09;5033057;28;20463;-70
2021/12/09 09:44:54;;;;;;;13.63;5.97;;;;;;;2.98;86.00;100195.63;5033319;28;20026;-70
2021/12/09 09:47:23;;;;;;;12.02;5.43;;;;;;;3.01;86.00;100190.69;5033347;28;20163;-70
2021/12/09 09:49:49;;;;;;;14.68;6.10;;;;;;;3.00;85.61;100183.72;5033277;28;20383;-70
2021/12/09 09:52:14;;;;;;;15.63;5.60;;;;;;;3.02;85.80;100191.56;5033329;28;20509;-70
2021/12/09 09:54:41;;;;;;;16.38;5.68;;;;;;;3.03;85.21;100208.41;5033507;28;20116;-70
2021/12/09 09:57:08;;;;;;;15.90;6.05;;;;;;;3.05;85.92;100201.84;5032635;28;20114;-70
2021/12/09 09:59:33;;;;;;;14.48;5.97;;;;;;;3.09;85.87;100196.94;5015269;28;20091;-70
2021/12/09 10:01:59;;;;;;;12.95;5.40;;;;;;;3.13;85.74;100199.03;5030759;28;20049;-70
2021/12/09 10:07:24;;;;;;;13.68;5.40;;;;;;;3.20;85.34;100199.09;4999254;28;20052;-70
2021/12/09 10:09:52;;;;;;;16.95;5.22;;;;;;;3.22;85.86;100202.41;5032911;28;20346;-70
2021/12/09 10:12:18;;;;;;;13.98;5.63;;;;;;;3.27;85.68;100199.97;5032430;28;20037;-70
2021/12/09 10:14:54;;;;;;;14.15;5.60;;;;;;;3.32;85.56;100196.72;5033162;28;20116;-71
2021/12/09 10:17:22;;;;;;;15.35;5.68;;;;;;;3.33;85.04;100190.34;5015052;28;20033;-70
2021/12/09 10:20:00;;;;;;;13.57;5.70;;;;;;;3.39;85.40;100194.94;5032716;28;20033;-70
2021/12/09 10:22:30;;;;;;;15.00;5.60;;;;;;;3.38;85.51;100185.25;5032797;28;20056;-70
2021/12/09 10:24:58;;;;;;;23.73;5.50;;;;;;;3.41;85.19;100184.84;5032577;28;20029;-70
2021/12/09 10:27:30;;;;;;;13.55;5.60;;;;;;;3.46;85.44;100176.28;5015036;28;20029;-70
2021/12/09 10:30:19;;;;;;;15.57;5.78;;;;;;;3.51;85.54;100173.84;5032451;28;20086;-70
2021/12/09 10:32:45;;;;;;;16.80;6.20;;;;;;;3.51;85.20;100177.31;5032724;28;20032;-70
2021/12/09 10:35:15;;;;;;;14.45;5.47;;;;;;;3.56;84.89;100168.72;5014828;28;20063;-70
2021/12/09 10:37:43;;;;;;;11.40;5.85;;;;;;;3.55;84.59;100172.44;5032634;28;20453;-70
2021/12/09 10:40:12;;;;;;;12.60;5.70;;;;;;;3.53;84.76;100169.09;5031831;28;20030;-70
2021/12/09 10:42:40;;;;;;;20.95;6.50;;;;;;;3.53;85.10;100177.13;5032238;28;20032;-70
2021/12/09 10:45:15;;;;;;;13.77;5.88;;;;;;;3.54;85.33;100179.59;5031932;28;20063;-70
2021/12/09 10:52:55;;;;;;;12.50;5.72;;;;;;;3.61;85.18;100177.00;5032401;28;20037;-70
2021/12/09 10:55:31;;;;;;;9.20;5.50;;;;;;;3.65;85.30;100185.44;5032434;28;20052;-71
2021/12/09 10:58:13;;;;;;;10.80;5.80;;;;;;;3.68;85.26;100182.38;5032222;28;20121;-70
2021/12/09 11:00:52;;;;;;;11.68;5.43;;;;;;;3.73;84.75;100183.44;5030335;28;20469;-70
2021/12/09 11:03:34;;;;;;;12.23;5.93;;;;;;;3.71;85.18;100185.50;5032197;28;20025;-70
2021/12/09 11:06:02;;;;;;;9.63;5.35;;;;;;;3.72;85.07;100180.97;5032081;28;20033;-70
2021/12/09 11:08:29;;;;;;;10.05;5.57;;;;;;;3.71;85.15;100177.47;5032274;28;20029;-70
2021/12/09 11:11:01;;;;;;;11.43;5.55;;;;;;;3.72;84.81;100176.44;5032327;28;20030;-70
2021/12/09 11:13:37;;;;;;;13.50;6.00;;;;;;;3.75;85.21;100169.06;5032238;28;20025;-70
2021/12/09 11:16:05;;;;;;;14.20;5.72;;;;;;;3.78;85.32;100174.81;5032050;28;20058;-70
2021/12/09 11:18:40;;;;;;;14.55;5.63;;;;;;;3.82;84.89;100162.72;5032220;28;20033;-70
2021/12/09 11:21:19;;;;;;;12.23;5.80;;;;;;;3.84;84.78;100167.88;5031925;28;20072;-70
2021/12/09 11:23:54;;;;;;;8.98;5.18;;;;;;;3.83;84.84;100158.16;5032211;28;20061;-70
2021/12/09 11:26:57;;;;;;;10.00;5.15;;;;;;;3.83;84.92;100161.66;5032181;28;20441;-70
2021/12/09 11:29:29;;;;;;;11.57;5.53;;;;;;;3.87;85.45;100152.22;5031101;28;20037;-70
2021/12/09 11:34:52;;;;;;;9.00;5.13;;;;;;;3.96;84.98;100152.88;5032108;28;20037;-70
2021/12/09 11:39:55;;;;;;;8.80;5.55;;;;;;;4.04;85.29;100162.59;5031981;28;20124;-70
2021/12/09 11:42:32;;;;;;;11.75;5.40;;;;;;;4.01;85.22;100158.47;5031771;28;20135;-71
2021/12/09 11:44:58;;;;;;;11.82;5.18;;;;;;;4.04;84.94;100158.06;5031747;28;20037;-70